首页
METAR-TAF:

METAR-TAF

机场 :

比爾德達勒, 冰岛

纬度: 65-38-30N, 经度: 23-32-45W, 海拔: 8米

当前天气观测

该预报发布于10小时和40分钟前的16:00 UTC
风速3节,风向多变
温度 18°C
湿度 49%
气压 1002 hPa
能见度10公里或以上
多云层高于4500英尺

METAR: BIBD 131600Z VRB03KT 9999 BKN045 18/07 Q1002

时间: 02:40 (02:40 UTC)

预报

该预报发布于13小时和34分钟前的13:06 UTC
预报有效从13日的 14点(UTC)到 13日的 20点(UTC)
风速5节,风向
能见度10公里或以上
多云层高于4000英尺
短暂存在
从 13日的 16点(UTC)到 13日的 20点(UTC)
多云层高于1400英尺
阴天层高于2500英尺
雨,

TAF: BIBD 131306Z 1314/1320 18005KT 9999 BKN040 TEMPO 1316/1320 RA BKN014 OVC025

超过4000个机场的气象观测和天气预报(METAR&TAF报告)。

可查询的气象台以黄色和红色小点在地图上表示。

将鼠标移到小点上方,可查看气象台名称。

然后点击查看天气观测和预报。

如需切换地图:点击带黑十字的绿色按钮放大地图;点击带横线的绿色按钮缩小地图;或者点击绿色箭头查看邻近地区的地图。


METAR-TAF: